Аэропорт: Новокузнецк-Спиченково. Новокузнецк

ICAO: UNWW

METAR:
2022-06-26 10:30:00
UNWW 261030Z 17005MPS CAVOK 32/14 Q1000 R01/09//60 NOSIG RMK QFE723
METAR:
2022-06-26 08:00:00
TAF UNWW 260800Z 2609/2709 17007G16MPS 8000 BKN040CB TEMPO 2609/2615 -TSRA BECMG 2615/2616 21003G08MPS TEMPO 2616/2709 24007G16MPS -TSRA